createdAt,value
2022-08-27T00:00:00.683Z,14.40
2022-08-27T00:02:04.161Z,13.77
2022-08-27T00:04:07.400Z,14.10
2022-08-27T00:06:14.038Z,14.20
2022-08-27T00:08:17.166Z,14.80
2022-08-27T00:10:22.365Z,15.60
2022-08-27T00:12:25.442Z,17.33
2022-08-27T00:14:29.621Z,17.30
2022-08-27T00:16:32.774Z,16.10
2022-08-27T00:18:37.013Z,17.03
2022-08-27T00:20:40.060Z,16.20
2022-08-27T00:22:44.488Z,16.77
2022-08-27T00:24:49.000Z,16.20
2022-08-27T00:26:53.777Z,18.20
2022-08-27T00:28:56.782Z,16.23
2022-08-27T00:30:59.968Z,19.03
2022-08-27T00:33:05.223Z,19.77
2022-08-27T00:35:09.526Z,19.83
2022-08-27T00:37:12.825Z,19.00
2022-08-27T00:39:17.268Z,16.70
2022-08-27T00:41:21.149Z,15.17
2022-08-27T00:43:24.551Z,15.43
2022-08-27T00:45:27.549Z,16.93
2022-08-27T00:47:33.229Z,17.23
2022-08-27T00:49:41.538Z,16.00
2022-08-27T00:51:45.016Z,17.77
2022-08-27T00:53:53.148Z,17.03
2022-08-27T00:56:00.035Z,18.80
2022-08-27T00:58:07.205Z,18.20
2022-08-27T01:00:14.838Z,20.60
2022-08-27T01:02:20.761Z,20.93
2022-08-27T01:04:24.007Z,21.80
2022-08-27T01:06:37.503Z,19.70
2022-08-27T01:08:43.765Z,19.53
2022-08-27T01:10:47.887Z,20.47
2022-08-27T01:12:54.155Z,20.57
2022-08-27T01:14:57.374Z,19.27
2022-08-27T01:17:01.603Z,20.70
2022-08-27T01:19:05.783Z,21.30
2022-08-27T01:21:12.765Z,20.43
2022-08-27T01:23:20.130Z,20.10
2022-08-27T01:25:26.070Z,18.63
2022-08-27T01:27:31.581Z,19.10
2022-08-27T01:29:34.690Z,18.23
2022-08-27T01:31:38.277Z,19.73
2022-08-27T01:33:42.102Z,20.60
2022-08-27T01:35:48.430Z,20.70
2022-08-27T01:37:53.608Z,21.73
2022-08-27T01:39:59.925Z,23.87
2022-08-27T01:42:05.698Z,24.30
2022-08-27T01:44:08.715Z,24.03
2022-08-27T01:46:11.763Z,22.87
2022-08-27T01:48:15.012Z,24.37
2022-08-27T01:50:21.147Z,24.17
2022-08-27T01:52:26.335Z,22.70
2022-08-27T01:54:29.494Z,26.30
2022-08-27T01:56:32.521Z,26.97
2022-08-27T01:58:37.104Z,26.30
2022-08-27T02:00:42.520Z,26.00
2022-08-27T02:02:45.669Z,24.50
2022-08-27T02:04:50.387Z,26.03
2022-08-27T02:06:53.384Z,26.53
2022-08-27T02:08:56.355Z,28.03
2022-08-27T02:10:59.487Z,28.57
2022-08-27T02:13:02.894Z,29.77
2022-08-27T02:15:08.703Z,28.73
2022-08-27T02:17:12.369Z,28.73
2022-08-27T02:19:16.451Z,29.70
2022-08-27T02:21:19.569Z,28.77
2022-08-27T02:23:22.560Z,29.70
2022-08-27T02:25:27.671Z,28.70
2022-08-27T02:27:34.043Z,29.57
2022-08-27T02:29:37.072Z,28.83
2022-08-27T02:31:42.168Z,27.73
2022-08-27T02:33:45.308Z,28.97
2022-08-27T02:35:48.416Z,28.70
2022-08-27T02:37:51.669Z,30.03
2022-08-27T02:39:54.850Z,30.20
2022-08-27T02:41:57.830Z,28.37
2022-08-27T02:44:01.396Z,30.53
2022-08-27T02:46:05.308Z,29.63
2022-08-27T02:48:10.603Z,29.70
2022-08-27T02:50:14.508Z,31.07
2022-08-27T02:52:17.594Z,31.40
2022-08-27T02:54:28.317Z,30.60
2022-08-27T02:56:31.868Z,31.07
2022-08-27T02:58:34.981Z,32.57
2022-08-27T03:00:38.038Z,34.00
2022-08-27T03:02:41.481Z,31.90
2022-08-27T03:04:46.360Z,32.57
2022-08-27T03:06:49.711Z,32.10
2022-08-27T03:08:53.593Z,31.53
2022-08-27T03:10:57.736Z,33.80
2022-08-27T03:13:00.730Z,32.40
2022-08-27T03:15:04.312Z,33.17
2022-08-27T03:17:21.255Z,33.57
2022-08-27T03:19:24.560Z,34.17
2022-08-27T03:21:29.164Z,33.37
2022-08-27T03:23:33.920Z,33.07
2022-08-27T03:25:37.183Z,34.17
2022-08-27T03:27:40.418Z,34.47
2022-08-27T03:29:43.369Z,37.53
2022-08-27T03:31:46.410Z,36.70
2022-08-27T03:33:49.465Z,36.13
2022-08-27T03:35:52.448Z,36.20
2022-08-27T03:37:56.761Z,35.47
2022-08-27T03:39:59.782Z,35.20
2022-08-27T03:42:02.817Z,35.10
2022-08-27T03:44:05.804Z,35.37
2022-08-27T03:46:09.459Z,35.23
2022-08-27T03:48:12.982Z,36.60
2022-08-27T03:50:15.973Z,36.20
2022-08-27T03:52:19.230Z,35.23
2022-08-27T03:54:24.975Z,35.87
2022-08-27T03:56:28.086Z,36.80
2022-08-27T03:58:31.115Z,36.00
2022-08-27T04:00:34.160Z,36.37
2022-08-27T04:02:37.996Z,35.90
2022-08-27T04:04:40.999Z,35.57
2022-08-27T04:06:44.094Z,37.80
2022-08-27T04:08:47.220Z,35.27
2022-08-27T04:10:52.101Z,36.53
2022-08-27T04:12:55.233Z,36.43
2022-08-27T04:14:58.187Z,36.13
2022-08-27T04:17:02.251Z,36.33
2022-08-27T04:19:05.243Z,36.77
2022-08-27T04:21:09.383Z,36.67
2022-08-27T04:23:12.557Z,35.00
2022-08-27T04:25:15.639Z,36.13
2022-08-27T04:27:20.592Z,38.50
2022-08-27T04:29:23.753Z,35.50
2022-08-27T04:31:27.364Z,35.73
2022-08-27T04:33:31.711Z,35.87
2022-08-27T04:35:34.755Z,37.23
2022-08-27T04:37:37.731Z,36.27
2022-08-27T04:39:40.718Z,35.20
2022-08-27T04:41:43.902Z,36.77
2022-08-27T04:43:49.165Z,35.90
2022-08-27T04:45:52.123Z,36.40
2022-08-27T04:47:55.066Z,35.97
2022-08-27T04:49:58.225Z,33.37
2022-08-27T04:52:01.257Z,34.27
2022-08-27T04:54:05.230Z,34.67
2022-08-27T04:56:08.420Z,34.53
2022-08-27T04:58:17.738Z,35.73
2022-08-27T05:00:22.726Z,34.87
2022-08-27T05:02:25.982Z,35.07
2022-08-27T05:04:30.365Z,34.40
2022-08-27T05:06:34.258Z,35.40
2022-08-27T05:08:37.243Z,36.00
2022-08-27T05:10:42.103Z,33.60
2022-08-27T05:12:45.094Z,35.27
2022-08-27T05:14:48.120Z,33.70
2022-08-27T05:16:52.595Z,35.17
2022-08-27T05:18:55.817Z,34.53
2022-08-27T05:20:59.977Z,33.50
2022-08-27T05:23:02.987Z,33.80
2022-08-27T05:25:06.821Z,34.80
2022-08-27T05:27:09.917Z,33.80
2022-08-27T05:29:16.590Z,36.70
2022-08-27T05:31:21.046Z,34.37
2022-08-27T05:33:26.511Z,34.83
2022-08-27T05:35:29.625Z,34.37
2022-08-27T05:37:33.965Z,34.20
2022-08-27T05:39:36.947Z,33.90
2022-08-27T05:41:39.904Z,32.70
2022-08-27T05:43:49.178Z,34.23
2022-08-27T05:45:53.575Z,36.60
2022-08-27T05:47:56.556Z,34.47
2022-08-27T05:50:03.695Z,37.50
2022-08-27T05:52:10.831Z,34.00
2022-08-27T05:54:19.218Z,33.90
2022-08-27T05:56:24.395Z,34.10
2022-08-27T05:58:45.034Z,34.60
2022-08-27T06:01:10.073Z,33.97
2022-08-27T06:03:13.404Z,33.30
2022-08-27T06:05:18.054Z,34.93
2022-08-27T06:07:21.105Z,35.60
2022-08-27T06:09:28.873Z,36.57
2022-08-27T06:11:31.965Z,35.37
2022-08-27T06:13:36.325Z,36.43
2022-08-27T06:15:41.552Z,36.90
2022-08-27T06:17:44.620Z,35.73
2022-08-27T06:19:47.590Z,35.17
2022-08-27T06:22:01.246Z,37.30
2022-08-27T06:24:14.116Z,36.03
2022-08-27T06:26:18.945Z,35.17
2022-08-27T06:28:23.438Z,35.10
2022-08-27T06:30:26.583Z,35.70
2022-08-27T06:32:31.378Z,32.93
2022-08-27T06:34:34.826Z,35.10
2022-08-27T06:36:39.235Z,36.70
2022-08-27T06:38:43.709Z,37.83
2022-08-27T06:40:47.720Z,38.53
2022-08-27T06:42:51.403Z,39.10
2022-08-27T06:44:54.750Z,37.00
2022-08-27T06:46:57.783Z,37.47
2022-08-27T06:49:01.916Z,38.07
2022-08-27T06:51:09.016Z,38.30
2022-08-27T06:53:12.434Z,38.00
2022-08-27T06:55:17.017Z,38.30
2022-08-27T06:57:20.000Z,36.63
2022-08-27T06:59:23.061Z,38.03
2022-08-27T07:01:30.447Z,38.20
2022-08-27T07:03:33.741Z,38.60
2022-08-27T07:05:38.016Z,37.60
2022-08-27T07:07:46.735Z,38.40
2022-08-27T07:09:51.757Z,37.47
2022-08-27T07:11:57.315Z,38.70
2022-08-27T07:14:01.036Z,40.53
2022-08-27T07:16:06.038Z,39.10
2022-08-27T07:18:09.296Z,37.10
2022-08-27T07:20:15.756Z,37.43
2022-08-27T07:22:18.760Z,38.50
2022-08-27T07:24:21.766Z,37.60
2022-08-27T07:26:25.003Z,37.33
2022-08-27T07:28:29.753Z,37.90
2022-08-27T07:30:32.951Z,38.07
2022-08-27T07:32:36.020Z,39.60
2022-08-27T07:34:39.076Z,37.60
2022-08-27T07:36:42.160Z,38.87
2022-08-27T07:38:45.349Z,38.60
2022-08-27T07:40:58.547Z,37.90
2022-08-27T07:43:19.164Z,38.13
2022-08-27T07:45:23.805Z,38.57
2022-08-27T07:47:26.865Z,39.17
2022-08-27T07:49:31.451Z,38.00
2022-08-27T07:51:37.446Z,38.43
2022-08-27T07:53:40.466Z,40.20
2022-08-27T07:55:43.597Z,39.20
2022-08-27T07:57:48.022Z,38.50
2022-08-27T07:59:53.091Z,40.03
2022-08-27T08:01:58.095Z,40.70
2022-08-27T08:04:01.243Z,39.93
2022-08-27T08:06:05.939Z,38.97
2022-08-27T08:08:09.236Z,39.00
2022-08-27T08:10:12.761Z,40.30
2022-08-27T08:12:15.934Z,39.63
2022-08-27T08:14:22.297Z,39.80
2022-08-27T08:16:30.970Z,39.47
2022-08-27T08:18:38.219Z,38.03
2022-08-27T08:20:57.479Z,38.97
2022-08-27T08:23:01.755Z,37.73
2022-08-27T08:25:05.520Z,37.47
2022-08-27T08:27:08.697Z,38.07
2022-08-27T08:29:14.705Z,36.70
2022-08-27T08:31:23.918Z,38.50
2022-08-27T08:33:27.616Z,36.77
2022-08-27T08:35:33.217Z,37.77
2022-08-27T08:37:44.320Z,37.03
2022-08-27T08:39:47.340Z,38.13
2022-08-27T08:41:52.694Z,36.67
2022-08-27T08:43:57.261Z,37.23
2022-08-27T08:46:06.412Z,35.93
2022-08-27T08:48:13.090Z,36.03
2022-08-27T08:50:20.165Z,35.30
2022-08-27T08:52:32.052Z,32.40
2022-08-27T08:54:36.044Z,32.17
2022-08-27T08:56:44.560Z,30.23
2022-08-27T08:58:51.204Z,28.07
2022-08-27T09:00:57.983Z,29.23
2022-08-27T09:03:01.042Z,27.80
2022-08-27T09:05:06.078Z,28.90
2022-08-27T09:07:14.255Z,27.40
2022-08-27T09:09:22.752Z,25.63
2022-08-27T09:11:30.228Z,26.50
2022-08-27T09:13:38.107Z,24.23
2022-08-27T09:15:41.116Z,26.23
2022-08-27T09:17:45.410Z,27.77
2022-08-27T09:19:48.433Z,26.50
2022-08-27T09:22:00.124Z,24.37
2022-08-27T09:24:07.747Z,25.27
2022-08-27T09:26:23.982Z,24.67
2022-08-27T09:28:47.266Z,24.73
2022-08-27T09:30:50.345Z,23.57
2022-08-27T09:32:56.781Z,22.70
2022-08-27T09:35:01.532Z,24.20
2022-08-27T09:37:08.352Z,26.17
2022-08-27T09:39:11.430Z,22.77
2022-08-27T09:41:21.281Z,23.17
2022-08-27T09:43:28.257Z,23.37
2022-08-27T09:45:31.917Z,23.50
2022-08-27T09:47:43.112Z,24.30
2022-08-27T09:49:47.408Z,22.40
2022-08-27T09:51:50.670Z,22.67
2022-08-27T09:53:55.886Z,21.77
2022-08-27T09:56:00.532Z,22.93
2022-08-27T09:58:06.473Z,21.57
2022-08-27T10:00:15.749Z,21.33
2022-08-27T10:02:21.953Z,22.17
2022-08-27T10:04:28.032Z,21.73
2022-08-27T10:06:32.678Z,22.30
2022-08-27T10:08:39.742Z,21.50
2022-08-27T10:10:51.207Z,21.90
2022-08-27T10:12:57.174Z,19.90
2022-08-27T10:15:02.707Z,20.30
2022-08-27T10:17:12.758Z,20.10
2022-08-27T10:19:32.858Z,20.20
2022-08-27T10:21:42.922Z,20.40
2022-08-27T10:23:53.654Z,20.83
2022-08-27T10:26:03.673Z,21.20
2022-08-27T10:28:20.115Z,20.50
2022-08-27T10:30:32.783Z,19.90
2022-08-27T10:32:57.522Z,19.97
2022-08-27T10:35:09.307Z,19.00
2022-08-27T10:37:22.769Z,18.17
2022-08-27T10:39:40.106Z,18.50
2022-08-27T10:41:45.017Z,18.17
2022-08-27T10:44:11.551Z,17.80
2022-08-27T10:46:31.870Z,17.80
2022-08-27T10:48:38.455Z,18.60
2022-08-27T10:50:47.762Z,18.40
2022-08-27T10:52:53.995Z,18.67
2022-08-27T10:55:01.990Z,19.13
2022-08-27T10:57:35.354Z,19.00
2022-08-27T10:59:44.542Z,18.20
2022-08-27T11:01:53.431Z,19.13
2022-08-27T11:04:00.738Z,19.90
2022-08-27T11:06:06.486Z,16.57
2022-08-27T11:08:13.356Z,18.10
2022-08-27T11:10:21.046Z,17.80
2022-08-27T11:12:35.242Z,19.03
2022-08-27T11:14:43.747Z,18.07
2022-08-27T11:16:51.630Z,19.73
2022-08-27T11:18:58.391Z,17.50
2022-08-27T11:21:05.021Z,18.80
2022-08-27T11:23:10.410Z,18.97
2022-08-27T11:25:25.793Z,18.07
2022-08-27T11:27:32.044Z,17.73
2022-08-27T11:29:37.533Z,18.13
2022-08-27T11:31:44.048Z,18.50
2022-08-27T11:33:55.816Z,17.70
2022-08-27T11:36:36.932Z,18.40
2022-08-27T11:38:46.868Z,19.00
2022-08-27T11:41:00.912Z,18.97
2022-08-27T11:43:06.603Z,19.10
2022-08-27T11:45:17.983Z,19.30
2022-08-27T11:47:23.204Z,19.33
2022-08-27T11:49:30.000Z,19.20
2022-08-27T11:51:35.011Z,19.63
2022-08-27T11:53:42.782Z,19.50
2022-08-27T11:55:56.543Z,20.33
2022-08-27T11:58:30.616Z,21.67
2022-08-27T12:00:38.785Z,20.23
2022-08-27T12:02:42.076Z,21.47
2022-08-27T12:04:46.531Z,21.27
2022-08-27T12:06:53.771Z,21.70
2022-08-27T12:09:07.855Z,21.40
2022-08-27T12:11:19.429Z,22.13
2022-08-27T12:13:27.495Z,22.40
2022-08-27T12:15:51.673Z,21.30
2022-08-27T12:17:59.977Z,22.83
2022-08-27T12:20:12.920Z,21.30
2022-08-27T12:22:30.220Z,21.33
2022-08-27T12:24:42.390Z,21.00
2022-08-27T12:26:57.069Z,20.67
2022-08-27T12:29:24.117Z,19.53
2022-08-27T12:31:27.439Z,21.00
2022-08-27T12:33:34.412Z,20.07
2022-08-27T12:35:44.294Z,21.17
2022-08-27T12:37:51.595Z,21.50
2022-08-27T12:40:01.868Z,20.70
2022-08-27T12:42:13.572Z,19.70
2022-08-27T12:44:24.151Z,20.80
2022-08-27T12:46:29.798Z,22.23
2022-08-27T12:48:42.560Z,20.70
2022-08-27T12:50:52.596Z,21.03
2022-08-27T12:53:24.002Z,20.20
2022-08-27T12:55:36.694Z,22.00
2022-08-27T12:57:44.453Z,19.77
2022-08-27T12:59:58.764Z,20.50
2022-08-27T13:02:11.047Z,11.73
2022-08-27T13:04:21.956Z,9.90
2022-08-27T13:06:31.000Z,6.93
2022-08-27T13:08:35.747Z,8.23
2022-08-27T13:10:38.760Z,10.80
2022-08-27T13:12:41.994Z,11.87
2022-08-27T13:14:45.897Z,11.63
2022-08-27T13:17:01.272Z,10.30
2022-08-27T13:19:06.522Z,11.37
2022-08-27T13:21:16.085Z,10.43
2022-08-27T13:23:24.079Z,8.87
2022-08-27T13:25:30.765Z,9.10
2022-08-27T13:27:36.764Z,10.00
2022-08-27T13:29:40.468Z,8.67
2022-08-27T13:31:43.724Z,8.97
2022-08-27T13:33:47.163Z,8.93
2022-08-27T13:35:50.904Z,8.03
2022-08-27T13:37:57.518Z,7.63
2022-08-27T13:40:02.246Z,7.53
2022-08-27T13:42:07.627Z,7.30
2022-08-27T13:44:12.507Z,7.70
2022-08-27T13:46:17.917Z,8.20
2022-08-27T13:48:24.282Z,9.07
2022-08-27T13:50:29.877Z,9.40
2022-08-27T13:52:35.472Z,10.30
2022-08-27T13:54:37.548Z,10.47
2022-08-27T13:56:57.504Z,11.95
2022-08-27T13:59:10.189Z,11.50
2022-08-27T14:01:18.029Z,12.03
2022-08-27T14:03:26.651Z,11.87
2022-08-27T14:05:31.923Z,11.03
2022-08-27T14:07:36.745Z,11.47
2022-08-27T14:09:48.813Z,13.17
2022-08-27T14:12:05.340Z,13.27
2022-08-27T14:14:08.624Z,14.20
2022-08-27T14:16:17.707Z,13.30
2022-08-27T14:18:42.261Z,13.07
2022-08-27T14:20:47.286Z,11.83
2022-08-27T14:22:50.930Z,11.83
2022-08-27T14:24:53.958Z,12.43
2022-08-27T14:27:05.486Z,13.10
2022-08-27T14:29:12.195Z,12.07
2022-08-27T14:31:15.976Z,12.07
2022-08-27T14:33:19.304Z,13.00
2022-08-27T14:35:24.888Z,11.50
2022-08-27T14:37:28.744Z,12.37
2022-08-27T14:39:31.978Z,13.20
2022-08-27T14:41:35.465Z,13.77
2022-08-27T14:43:39.770Z,14.43
2022-08-27T14:45:44.520Z,14.33
2022-08-27T14:47:49.158Z,13.47
2022-08-27T14:49:52.184Z,14.30
2022-08-27T14:51:55.269Z,14.37
2022-08-27T14:53:58.910Z,14.37
2022-08-27T14:56:01.943Z,14.00
2022-08-27T14:58:05.040Z,14.07
2022-08-27T15:00:11.097Z,16.20
2022-08-27T15:02:14.961Z,15.43
2022-08-27T15:04:18.068Z,14.37
2022-08-27T15:06:22.357Z,14.90
2022-08-27T15:08:29.381Z,15.47
2022-08-27T15:10:35.091Z,15.37
2022-08-27T15:12:38.846Z,16.20
2022-08-27T15:14:43.267Z,17.07
2022-08-27T15:16:47.673Z,18.50
2022-08-27T15:18:53.776Z,18.37
2022-08-27T15:21:04.127Z,19.50
2022-08-27T15:23:07.143Z,16.60
2022-08-27T15:25:11.068Z,17.73
2022-08-27T15:27:14.421Z,18.67
2022-08-27T15:29:17.756Z,18.67
2022-08-27T15:31:21.307Z,19.13
2022-08-27T15:33:25.908Z,18.43
2022-08-27T15:35:28.956Z,18.60
2022-08-27T15:37:32.704Z,18.73
2022-08-27T15:39:35.704Z,18.93
2022-08-27T15:42:03.005Z,20.67
2022-08-27T15:44:03.856Z,21.93
2022-08-27T15:46:07.362Z,21.00
2022-08-27T15:48:11.343Z,21.50
2022-08-27T15:50:16.014Z,22.07
2022-08-27T15:52:21.429Z,22.33
2022-08-27T15:54:25.204Z,22.93
2022-08-27T15:56:32.523Z,23.57
2022-08-27T15:58:38.564Z,22.83
2022-08-27T16:00:43.199Z,24.00
2022-08-27T16:02:47.345Z,24.03
2022-08-27T16:04:51.152Z,25.70
2022-08-27T16:06:55.961Z,24.60
2022-08-27T16:08:59.003Z,28.93
2022-08-27T16:11:02.139Z,27.33
2022-08-27T16:13:05.651Z,25.70
2022-08-27T16:15:09.577Z,25.30
2022-08-27T16:17:13.459Z,25.20
2022-08-27T16:19:16.903Z,24.97
2022-08-27T16:21:20.001Z,25.87
2022-08-27T16:23:26.100Z,25.00
2022-08-27T16:25:29.457Z,23.50
2022-08-27T16:27:33.292Z,24.47
2022-08-27T16:29:36.638Z,25.17
2022-08-27T16:31:39.690Z,24.17
2022-08-27T16:33:43.685Z,25.70
2022-08-27T16:35:46.779Z,25.17
2022-08-27T16:37:49.978Z,23.50
2022-08-27T16:39:54.410Z,22.07
2022-08-27T16:41:57.446Z,22.30
2022-08-27T16:44:00.643Z,20.97
2022-08-27T16:46:03.725Z,21.27
2022-08-27T16:48:24.399Z,21.23
2022-08-27T16:50:36.800Z,20.50
2022-08-27T16:52:39.796Z,20.17
2022-08-27T16:54:43.022Z,20.80
2022-08-27T16:56:47.397Z,22.17
2022-08-27T16:58:51.543Z,22.10
2022-08-27T17:00:56.506Z,22.13
2022-08-27T17:02:59.543Z,21.53
2022-08-27T17:05:33.451Z,22.20
2022-08-27T17:07:25.827Z,22.33
2022-08-27T17:09:29.199Z,21.63
2022-08-27T17:11:32.846Z,21.67
2022-08-27T17:13:39.550Z,21.60
2022-08-27T17:15:42.868Z,21.13
2022-08-27T17:17:46.428Z,22.03
2022-08-27T17:19:49.430Z,20.70
2022-08-27T17:21:54.686Z,20.77
2022-08-27T17:23:59.415Z,21.30
2022-08-27T17:26:03.042Z,21.20
2022-08-27T17:28:06.343Z,20.77
2022-08-27T17:30:12.161Z,20.63
2022-08-27T17:32:15.199Z,21.23
2022-08-27T17:34:21.806Z,21.63
2022-08-27T17:36:24.959Z,22.40
2022-08-27T17:38:32.685Z,22.30
2022-08-27T17:40:35.848Z,21.37
2022-08-27T17:42:38.887Z,22.10
2022-08-27T17:44:41.914Z,21.30
2022-08-27T17:46:46.307Z,19.23
2022-08-27T17:48:49.282Z,20.83
2022-08-27T17:50:52.264Z,20.97
2022-08-27T17:52:55.460Z,20.47
2022-08-27T17:54:59.782Z,24.67
2022-08-27T17:57:04.999Z,21.53
2022-08-27T17:59:08.899Z,21.93
2022-08-27T18:01:12.023Z,20.77
2022-08-27T18:03:18.272Z,21.17
2022-08-27T18:05:23.779Z,21.07
2022-08-27T18:07:27.250Z,21.20
2022-08-27T18:09:30.300Z,19.80
2022-08-27T18:11:33.619Z,21.77
2022-08-27T18:13:37.245Z,20.90
2022-08-27T18:15:42.019Z,21.27
2022-08-27T18:17:45.125Z,20.63
2022-08-27T18:19:50.696Z,21.53
2022-08-27T18:21:54.373Z,21.00
2022-08-27T18:23:57.375Z,21.57
2022-08-27T18:26:00.418Z,22.70
2022-08-27T18:28:07.111Z,23.13
2022-08-27T18:30:11.857Z,22.63
2022-08-27T18:32:14.854Z,22.57
2022-08-27T18:34:20.927Z,21.10
2022-08-27T18:36:25.812Z,21.07
2022-08-27T18:38:28.790Z,21.63
2022-08-27T18:40:36.184Z,19.80
2022-08-27T18:42:40.999Z,20.30
2022-08-27T18:44:45.676Z,20.30
2022-08-27T18:46:48.698Z,20.37
2022-08-27T18:48:51.718Z,18.90
2022-08-27T18:50:58.474Z,20.30
2022-08-27T18:53:03.859Z,20.03
2022-08-27T18:55:09.066Z,19.47
2022-08-27T18:57:13.110Z,19.47
2022-08-27T18:59:16.209Z,19.20
2022-08-27T19:01:23.902Z,19.23
2022-08-27T19:03:29.379Z,19.53
2022-08-27T19:05:32.494Z,19.93
2022-08-27T19:07:36.087Z,19.60
2022-08-27T19:09:40.546Z,20.10
2022-08-27T19:11:43.682Z,20.03
2022-08-27T19:13:50.568Z,18.70
2022-08-27T19:15:56.821Z,19.20
2022-08-27T19:18:02.916Z,19.00
2022-08-27T19:20:07.238Z,18.20
2022-08-27T19:22:10.317Z,16.83
2022-08-27T19:24:13.294Z,18.53
2022-08-27T19:26:20.551Z,17.33
2022-08-27T19:28:26.200Z,17.73
2022-08-27T19:30:29.242Z,17.00
2022-08-27T19:32:34.688Z,17.60
2022-08-27T19:34:37.874Z,18.10
2022-08-27T19:36:42.649Z,19.90
2022-08-27T19:38:46.527Z,19.33
2022-08-27T19:40:49.710Z,19.37
2022-08-27T19:42:54.093Z,18.40
2022-08-27T19:44:57.256Z,18.10
2022-08-27T19:47:00.576Z,18.97
2022-08-27T19:49:03.922Z,20.00
2022-08-27T19:51:07.228Z,18.20
2022-08-27T19:53:10.339Z,20.60
2022-08-27T19:55:16.420Z,21.93
2022-08-27T19:57:19.696Z,23.43
2022-08-27T19:59:24.107Z,24.57
2022-08-27T20:01:27.369Z,24.70
2022-08-27T20:03:30.426Z,25.53
2022-08-27T20:05:33.486Z,24.47
2022-08-27T20:07:36.634Z,24.37
2022-08-27T20:09:40.669Z,25.23
2022-08-27T20:11:45.835Z,25.67
2022-08-27T20:13:50.817Z,28.20
2022-08-27T20:15:55.449Z,26.60
2022-08-27T20:18:00.011Z,26.90
2022-08-27T20:20:03.084Z,27.47
2022-08-27T20:22:06.825Z,27.30
2022-08-27T20:24:10.131Z,26.87
2022-08-27T20:26:13.125Z,27.50
2022-08-27T20:28:38.327Z,26.57
2022-08-27T20:30:40.089Z,24.40
2022-08-27T20:32:47.590Z,24.07
2022-08-27T20:34:51.466Z,23.80
2022-08-27T20:36:54.833Z,23.37
2022-08-27T20:38:58.077Z,21.50
2022-08-27T20:41:01.430Z,20.87
2022-08-27T20:43:04.511Z,20.10
2022-08-27T20:45:12.198Z,21.17
2022-08-27T20:47:17.151Z,19.90
2022-08-27T20:49:22.060Z,19.20
2022-08-27T20:51:25.681Z,18.37
2022-08-27T20:53:28.824Z,18.97
2022-08-27T20:55:31.885Z,18.07
2022-08-27T20:57:34.903Z,17.43
2022-08-27T20:59:57.942Z,18.60
2022-08-27T21:02:06.088Z,18.20
2022-08-27T21:04:09.208Z,18.77
2022-08-27T21:06:13.834Z,18.30
2022-08-27T21:08:19.266Z,18.67
2022-08-27T21:10:22.574Z,18.20
2022-08-27T21:12:26.418Z,18.40
2022-08-27T21:14:29.533Z,18.93
2022-08-27T21:16:33.187Z,18.80
2022-08-27T21:18:36.431Z,18.90
2022-08-27T21:20:39.691Z,19.90
2022-08-27T21:22:45.108Z,19.30
2022-08-27T21:24:48.454Z,19.67
2022-08-27T21:26:51.530Z,20.30
2022-08-27T21:28:55.588Z,20.20
2022-08-27T21:30:59.132Z,20.00
2022-08-27T21:33:02.268Z,19.03
2022-08-27T21:35:06.229Z,18.40
2022-08-27T21:37:11.078Z,19.53
2022-08-27T21:39:15.490Z,18.80
2022-08-27T21:41:18.659Z,19.60
2022-08-27T21:43:21.880Z,18.17
2022-08-27T21:45:25.030Z,20.67
2022-08-27T21:47:29.402Z,19.60
2022-08-27T21:49:33.247Z,19.77
2022-08-27T21:51:36.251Z,19.80
2022-08-27T21:53:39.285Z,20.33
2022-08-27T21:55:44.134Z,19.93
2022-08-27T21:57:47.263Z,19.60
2022-08-27T21:59:51.475Z,21.13
2022-08-27T22:02:00.480Z,19.53
2022-08-27T22:04:04.751Z,19.30
2022-08-27T22:06:12.255Z,19.67
2022-08-27T22:08:17.843Z,19.47
2022-08-27T22:10:21.316Z,18.20
2022-08-27T22:12:25.671Z,18.30
2022-08-27T22:14:29.072Z,19.40
2022-08-27T22:16:32.143Z,18.60
2022-08-27T22:18:35.211Z,19.50
2022-08-27T22:20:42.369Z,18.90
2022-08-27T22:22:45.532Z,21.03
2022-08-27T22:24:48.575Z,20.30
2022-08-27T22:26:51.629Z,19.90
2022-08-27T22:28:56.036Z,20.20
2022-08-27T22:30:59.388Z,22.00
2022-08-27T22:33:02.490Z,21.60
2022-08-27T22:35:06.197Z,23.23
2022-08-27T22:37:09.278Z,20.07
2022-08-27T22:39:12.353Z,20.13
2022-08-27T22:41:16.536Z,20.03
2022-08-27T22:43:21.707Z,19.50
2022-08-27T22:45:27.048Z,21.37
2022-08-27T22:47:30.076Z,22.37
2022-08-27T22:49:35.824Z,21.23
2022-08-27T22:51:38.895Z,19.40
2022-08-27T22:53:41.972Z,19.57
2022-08-27T22:55:49.952Z,18.03
2022-08-27T22:57:55.174Z,17.87
2022-08-27T22:59:58.531Z,16.87
2022-08-27T23:02:04.476Z,17.73
2022-08-27T23:04:07.840Z,18.00
2022-08-27T23:06:11.079Z,18.83
2022-08-27T23:08:15.140Z,18.23
2022-08-27T23:10:20.401Z,17.23
2022-08-27T23:12:26.046Z,17.10
2022-08-27T23:14:34.203Z,16.73
2022-08-27T23:16:37.240Z,18.63
2022-08-27T23:18:41.860Z,18.70
2022-08-27T23:20:45.195Z,17.90
2022-08-27T23:22:48.603Z,17.90
2022-08-27T23:25:10.680Z,17.10
2022-08-27T23:27:32.182Z,17.37
2022-08-27T23:29:35.844Z,17.40
2022-08-27T23:31:38.998Z,17.93
2022-08-27T23:33:43.593Z,17.73
2022-08-27T23:35:48.252Z,17.43
2022-08-27T23:37:51.615Z,17.00
2022-08-27T23:39:55.191Z,19.93
2022-08-27T23:41:58.176Z,19.20
2022-08-27T23:44:01.890Z,17.97
2022-08-27T23:46:05.184Z,17.50
2022-08-27T23:48:08.228Z,17.13
2022-08-27T23:50:13.007Z,17.20
2022-08-27T23:52:16.279Z,17.20
2022-08-27T23:54:19.295Z,18.10
2022-08-27T23:56:22.285Z,18.00
2022-08-27T23:58:33.823Z,18.13
